sensor_id;sensor_type;location;lat;lon;timestamp;P1;durP1;ratioP1;P2;durP2;ratioP2
14241;SDS011;7205;50.864;12.766;2023-10-08T00:01:38;4.10;;;3.07;;
14241;SDS011;7205;50.864;12.766;2023-10-08T00:04:09;2.80;;;2.60;;
14241;SDS011;7205;50.864;12.766;2023-10-08T00:06:36;5.33;;;2.90;;
14241;SDS011;7205;50.864;12.766;2023-10-08T00:09:04;2.90;;;2.70;;
14241;SDS011;7205;50.864;12.766;2023-10-08T00:11:36;7.80;;;3.07;;
14241;SDS011;7205;50.864;12.766;2023-10-08T00:14:04;6.50;;;2.67;;
14241;SDS011;7205;50.864;12.766;2023-10-08T00:16:36;5.47;;;3.17;;
14241;SDS011;7205;50.864;12.766;2023-10-08T00:19:05;5.63;;;3.00;;
14241;SDS011;7205;50.864;12.766;2023-10-08T00:21:34;3.53;;;2.80;;
14241;SDS011;7205;50.864;12.766;2023-10-08T00:24:03;4.40;;;2.97;;
14241;SDS011;7205;50.864;12.766;2023-10-08T00:26:32;3.77;;;2.87;;
14241;SDS011;7205;50.864;12.766;2023-10-08T00:29:01;6.17;;;3.03;;
14241;SDS011;7205;50.864;12.766;2023-10-08T00:31:32;5.17;;;3.27;;
14241;SDS011;7205;50.864;12.766;2023-10-08T00:34:04;5.83;;;3.10;;
14241;SDS011;7205;50.864;12.766;2023-10-08T00:36:36;6.70;;;3.13;;
14241;SDS011;7205;50.864;12.766;2023-10-08T00:39:03;5.90;;;3.47;;
14241;SDS011;7205;50.864;12.766;2023-10-08T00:41:34;9.80;;;3.10;;
14241;SDS011;7205;50.864;12.766;2023-10-08T00:44:06;3.23;;;2.93;;
14241;SDS011;7205;50.864;12.766;2023-10-08T00:46:33;3.57;;;2.63;;
14241;SDS011;7205;50.864;12.766;2023-10-08T00:49:05;3.90;;;2.70;;
14241;SDS011;7205;50.864;12.766;2023-10-08T00:51:49;4.53;;;2.87;;
14241;SDS011;7205;50.864;12.766;2023-10-08T00:54:29;8.50;;;3.30;;
14241;SDS011;7205;50.864;12.766;2023-10-08T00:56:58;6.53;;;2.67;;
14241;SDS011;7205;50.864;12.766;2023-10-08T00:59:30;4.73;;;3.03;;
14241;SDS011;7205;50.864;12.766;2023-10-08T01:02:07;4.93;;;3.40;;
14241;SDS011;7205;50.864;12.766;2023-10-08T01:04:41;6.30;;;3.10;;
14241;SDS011;7205;50.864;12.766;2023-10-08T01:07:09;4.80;;;2.73;;
14241;SDS011;7205;50.864;12.766;2023-10-08T01:09:39;3.87;;;2.80;;
14241;SDS011;7205;50.864;12.766;2023-10-08T01:12:08;3.97;;;3.33;;
14241;SDS011;7205;50.864;12.766;2023-10-08T01:14:38;3.87;;;3.00;;
14241;SDS011;7205;50.864;12.766;2023-10-08T01:17:07;7.40;;;3.73;;
14241;SDS011;7205;50.864;12.766;2023-10-08T01:19:35;4.80;;;3.10;;
14241;SDS011;7205;50.864;12.766;2023-10-08T01:22:07;4.20;;;2.97;;
14241;SDS011;7205;50.864;12.766;2023-10-08T01:24:38;3.27;;;2.73;;
14241;SDS011;7205;50.864;12.766;2023-10-08T01:27:05;4.77;;;3.00;;
14241;SDS011;7205;50.864;12.766;2023-10-08T01:29:36;3.77;;;2.80;;
14241;SDS011;7205;50.864;12.766;2023-10-08T01:32:03;4.57;;;3.10;;
14241;SDS011;7205;50.864;12.766;2023-10-08T01:34:35;4.50;;;3.30;;
14241;SDS011;7205;50.864;12.766;2023-10-08T01:37:02;5.47;;;3.30;;
14241;SDS011;7205;50.864;12.766;2023-10-08T01:39:36;5.33;;;3.13;;
14241;SDS011;7205;50.864;12.766;2023-10-08T01:42:05;7.47;;;3.23;;
14241;SDS011;7205;50.864;12.766;2023-10-08T01:44:32;6.33;;;3.40;;
14241;SDS011;7205;50.864;12.766;2023-10-08T01:47:00;3.30;;;3.00;;
14241;SDS011;7205;50.864;12.766;2023-10-08T01:49:29;7.50;;;3.53;;
14241;SDS011;7205;50.864;12.766;2023-10-08T01:51:58;6.27;;;3.33;;
14241;SDS011;7205;50.864;12.766;2023-10-08T01:54:30;6.10;;;3.07;;
14241;SDS011;7205;50.864;12.766;2023-10-08T01:57:02;7.83;;;3.50;;
14241;SDS011;7205;50.864;12.766;2023-10-08T01:59:30;5.63;;;3.33;;
14241;SDS011;7205;50.864;12.766;2023-10-08T02:01:58;5.70;;;3.40;;
14241;SDS011;7205;50.864;12.766;2023-10-08T02:04:24;5.10;;;3.70;;
14241;SDS011;7205;50.864;12.766;2023-10-08T02:06:51;6.93;;;3.47;;
14241;SDS011;7205;50.864;12.766;2023-10-08T02:09:18;7.20;;;3.57;;
14241;SDS011;7205;50.864;12.766;2023-10-08T02:11:51;7.50;;;3.77;;
14241;SDS011;7205;50.864;12.766;2023-10-08T02:14:20;6.93;;;3.50;;
14241;SDS011;7205;50.864;12.766;2023-10-08T02:16:48;5.00;;;3.67;;
14241;SDS011;7205;50.864;12.766;2023-10-08T02:19:15;4.13;;;3.70;;
14241;SDS011;7205;50.864;12.766;2023-10-08T02:21:51;4.67;;;3.50;;
14241;SDS011;7205;50.864;12.766;2023-10-08T02:24:19;6.03;;;3.90;;
14241;SDS011;7205;50.864;12.766;2023-10-08T02:26:47;5.10;;;3.50;;
14241;SDS011;7205;50.864;12.766;2023-10-08T02:29:14;7.03;;;3.63;;
14241;SDS011;7205;50.864;12.766;2023-10-08T02:31:42;5.80;;;3.53;;
14241;SDS011;7205;50.864;12.766;2023-10-08T02:34:10;5.93;;;3.67;;
14241;SDS011;7205;50.864;12.766;2023-10-08T02:36:38;4.00;;;3.57;;
14241;SDS011;7205;50.864;12.766;2023-10-08T02:39:05;4.47;;;3.60;;
14241;SDS011;7205;50.864;12.766;2023-10-08T02:41:39;6.43;;;4.00;;
14241;SDS011;7205;50.864;12.766;2023-10-08T02:44:07;4.83;;;3.50;;
14241;SDS011;7205;50.864;12.766;2023-10-08T02:46:38;4.37;;;3.50;;
14241;SDS011;7205;50.864;12.766;2023-10-08T02:49:07;6.20;;;3.80;;
14241;SDS011;7205;50.864;12.766;2023-10-08T02:51:36;5.40;;;3.63;;
14241;SDS011;7205;50.864;12.766;2023-10-08T02:54:06;7.77;;;3.50;;
14241;SDS011;7205;50.864;12.766;2023-10-08T02:56:41;7.10;;;3.80;;
14241;SDS011;7205;50.864;12.766;2023-10-08T02:59:10;5.17;;;3.40;;
14241;SDS011;7205;50.864;12.766;2023-10-08T03:01:37;4.63;;;3.50;;
14241;SDS011;7205;50.864;12.766;2023-10-08T03:04:05;8.37;;;3.90;;
14241;SDS011;7205;50.864;12.766;2023-10-08T03:06:43;10.57;;;4.03;;
14241;SDS011;7205;50.864;12.766;2023-10-08T03:09:10;8.93;;;4.20;;
14241;SDS011;7205;50.864;12.766;2023-10-08T03:11:39;7.50;;;4.10;;
14241;SDS011;7205;50.864;12.766;2023-10-08T03:14:12;8.77;;;3.87;;
14241;SDS011;7205;50.864;12.766;2023-10-08T03:16:47;3.73;;;3.43;;
14241;SDS011;7205;50.864;12.766;2023-10-08T03:19:15;7.67;;;4.27;;
14241;SDS011;7205;50.864;12.766;2023-10-08T03:21:45;6.57;;;4.10;;
14241;SDS011;7205;50.864;12.766;2023-10-08T03:24:16;4.10;;;3.60;;
14241;SDS011;7205;50.864;12.766;2023-10-08T03:27:02;4.20;;;3.30;;
14241;SDS011;7205;50.864;12.766;2023-10-08T03:29:36;2.13;;;2.00;;
14241;SDS011;7205;50.864;12.766;2023-10-08T03:32:09;1.40;;;1.40;;
14241;SDS011;7205;50.864;12.766;2023-10-08T03:34:45;0.80;;;0.80;;
14241;SDS011;7205;50.864;12.766;2023-10-08T03:37:13;0.67;;;0.67;;
14241;SDS011;7205;50.864;12.766;2023-10-08T03:39:54;0.57;;;0.57;;
14241;SDS011;7205;50.864;12.766;2023-10-08T03:42:33;0.30;;;0.30;;
14241;SDS011;7205;50.864;12.766;2023-10-08T03:45:05;0.33;;;0.33;;
14241;SDS011;7205;50.864;12.766;2023-10-08T03:47:37;0.20;;;0.20;;
14241;SDS011;7205;50.864;12.766;2023-10-08T03:50:12;0.10;;;0.10;;
14241;SDS011;7205;50.864;12.766;2023-10-08T03:52:42;0.10;;;0.10;;
14241;SDS011;7205;50.864;12.766;2023-10-08T03:55:10;0.10;;;0.10;;
14241;SDS011;7205;50.864;12.766;2023-10-08T03:57:47;0.00;;;0.00;;
14241;SDS011;7205;50.864;12.766;2023-10-08T04:00:22;0.10;;;0.03;;
14241;SDS011;7205;50.864;12.766;2023-10-08T04:02:56;0.10;;;0.10;;
14241;SDS011;7205;50.864;12.766;2023-10-08T04:05:27;1.60;;;0.20;;
14241;SDS011;7205;50.864;12.766;2023-10-08T04:08:05;0.10;;;0.10;;
14241;SDS011;7205;50.864;12.766;2023-10-08T04:10:49;0.20;;;0.20;;
14241;SDS011;7205;50.864;12.766;2023-10-08T04:13:30;0.20;;;0.20;;
14241;SDS011;7205;50.864;12.766;2023-10-08T04:15:57;0.30;;;0.30;;
14241;SDS011;7205;50.864;12.766;2023-10-08T04:18:24;0.40;;;0.40;;
14241;SDS011;7205;50.864;12.766;2023-10-08T04:20:54;0.40;;;0.40;;
14241;SDS011;7205;50.864;12.766;2023-10-08T04:23:29;0.50;;;0.50;;
14241;SDS011;7205;50.864;12.766;2023-10-08T04:25:56;0.47;;;0.40;;
14241;SDS011;7205;50.864;12.766;2023-10-08T04:28:24;1.60;;;0.60;;
14241;SDS011;7205;50.864;12.766;2023-10-08T04:30:53;0.50;;;0.50;;
14241;SDS011;7205;50.864;12.766;2023-10-08T04:33:27;0.50;;;0.30;;
14241;SDS011;7205;50.864;12.766;2023-10-08T04:36:00;0.30;;;0.30;;
14241;SDS011;7205;50.864;12.766;2023-10-08T04:38:28;0.40;;;0.40;;
14241;SDS011;7205;50.864;12.766;2023-10-08T04:41:01;0.40;;;0.40;;
14241;SDS011;7205;50.864;12.766;2023-10-08T04:43:34;0.30;;;0.30;;
14241;SDS011;7205;50.864;12.766;2023-10-08T04:46:04;0.20;;;0.20;;
14241;SDS011;7205;50.864;12.766;2023-10-08T04:48:44;1.13;;;0.40;;
14241;SDS011;7205;50.864;12.766;2023-10-08T04:51:13;0.30;;;0.30;;
14241;SDS011;7205;50.864;12.766;2023-10-08T04:53:40;0.40;;;0.40;;
14241;SDS011;7205;50.864;12.766;2023-10-08T04:56:10;0.40;;;0.40;;
14241;SDS011;7205;50.864;12.766;2023-10-08T04:58:42;0.30;;;0.30;;
14241;SDS011;7205;50.864;12.766;2023-10-08T05:01:12;0.30;;;0.30;;
14241;SDS011;7205;50.864;12.766;2023-10-08T05:03:53;0.50;;;0.50;;
14241;SDS011;7205;50.864;12.766;2023-10-08T05:06:34;0.80;;;0.70;;
14241;SDS011;7205;50.864;12.766;2023-10-08T05:09:26;0.60;;;0.60;;
14241;SDS011;7205;50.864;12.766;2023-10-08T05:12:06;0.53;;;0.53;;
14241;SDS011;7205;50.864;12.766;2023-10-08T05:14:54;0.40;;;0.40;;
14241;SDS011;7205;50.864;12.766;2023-10-08T05:17:47;0.50;;;0.50;;
14241;SDS011;7205;50.864;12.766;2023-10-08T05:20:23;0.60;;;0.60;;
14241;SDS011;7205;50.864;12.766;2023-10-08T05:23:08;0.43;;;0.43;;
14241;SDS011;7205;50.864;12.766;2023-10-08T05:26:18;0.50;;;0.50;;
14241;SDS011;7205;50.864;12.766;2023-10-08T05:28:56;0.80;;;0.40;;
14241;SDS011;7205;50.864;12.766;2023-10-08T05:31:26;0.47;;;0.40;;
14241;SDS011;7205;50.864;12.766;2023-10-08T05:34:12;0.40;;;0.40;;
14241;SDS011;7205;50.864;12.766;2023-10-08T05:36:57;0.60;;;0.60;;
14241;SDS011;7205;50.864;12.766;2023-10-08T05:39:58;0.40;;;0.40;;
14241;SDS011;7205;50.864;12.766;2023-10-08T05:42:38;0.50;;;0.50;;
14241;SDS011;7205;50.864;12.766;2023-10-08T05:45:12;0.67;;;0.60;;
14241;SDS011;7205;50.864;12.766;2023-10-08T05:47:39;0.27;;;0.27;;
14241;SDS011;7205;50.864;12.766;2023-10-08T05:50:16;0.20;;;0.20;;
14241;SDS011;7205;50.864;12.766;2023-10-08T05:53:04;0.20;;;0.20;;
14241;SDS011;7205;50.864;12.766;2023-10-08T05:55:46;0.33;;;0.30;;
14241;SDS011;7205;50.864;12.766;2023-10-08T05:58:13;1.17;;;0.37;;
14241;SDS011;7205;50.864;12.766;2023-10-08T06:00:52;0.40;;;0.40;;
14241;SDS011;7205;50.864;12.766;2023-10-08T06:03:32;0.40;;;0.40;;
14241;SDS011;7205;50.864;12.766;2023-10-08T06:06:02;0.70;;;0.50;;
14241;SDS011;7205;50.864;12.766;2023-10-08T06:08:48;0.83;;;0.60;;
14241;SDS011;7205;50.864;12.766;2023-10-08T06:11:21;0.40;;;0.40;;
14241;SDS011;7205;50.864;12.766;2023-10-08T06:14:12;1.07;;;0.57;;
14241;SDS011;7205;50.864;12.766;2023-10-08T06:16:53;1.53;;;0.53;;
14241;SDS011;7205;50.864;12.766;2023-10-08T06:19:38;0.57;;;0.40;;
14241;SDS011;7205;50.864;12.766;2023-10-08T06:22:05;0.73;;;0.30;;
14241;SDS011;7205;50.864;12.766;2023-10-08T06:24:31;1.13;;;0.50;;
14241;SDS011;7205;50.864;12.766;2023-10-08T06:27:06;0.50;;;0.50;;
14241;SDS011;7205;50.864;12.766;2023-10-08T06:29:34;0.40;;;0.40;;
14241;SDS011;7205;50.864;12.766;2023-10-08T06:32:01;0.57;;;0.40;;
14241;SDS011;7205;50.864;12.766;2023-10-08T06:34:28;1.13;;;0.50;;
14241;SDS011;7205;50.864;12.766;2023-10-08T06:36:58;1.60;;;0.63;;
14241;SDS011;7205;50.864;12.766;2023-10-08T06:39:26;0.70;;;0.70;;
14241;SDS011;7205;50.864;12.766;2023-10-08T06:42:13;0.87;;;0.70;;
14241;SDS011;7205;50.864;12.766;2023-10-08T06:44:41;0.73;;;0.50;;
14241;SDS011;7205;50.864;12.766;2023-10-08T06:47:11;0.50;;;0.50;;
14241;SDS011;7205;50.864;12.766;2023-10-08T06:49:41;0.70;;;0.70;;
14241;SDS011;7205;50.864;12.766;2023-10-08T06:52:08;0.50;;;0.50;;
14241;SDS011;7205;50.864;12.766;2023-10-08T06:54:36;0.57;;;0.50;;
14241;SDS011;7205;50.864;12.766;2023-10-08T06:57:08;0.40;;;0.40;;
14241;SDS011;7205;50.864;12.766;2023-10-08T06:59:40;0.57;;;0.50;;
14241;SDS011;7205;50.864;12.766;2023-10-08T07:02:08;0.50;;;0.40;;
14241;SDS011;7205;50.864;12.766;2023-10-08T07:04:35;0.30;;;0.30;;
14241;SDS011;7205;50.864;12.766;2023-10-08T07:07:02;0.30;;;0.30;;
14241;SDS011;7205;50.864;12.766;2023-10-08T07:09:34;0.43;;;0.23;;
14241;SDS011;7205;50.864;12.766;2023-10-08T07:12:01;0.30;;;0.30;;
14241;SDS011;7205;50.864;12.766;2023-10-08T07:14:31;0.20;;;0.20;;
14241;SDS011;7205;50.864;12.766;2023-10-08T07:17:04;0.40;;;0.30;;
14241;SDS011;7205;50.864;12.766;2023-10-08T07:19:33;0.57;;;0.40;;
14241;SDS011;7205;50.864;12.766;2023-10-08T07:22:05;0.30;;;0.30;;
14241;SDS011;7205;50.864;12.766;2023-10-08T07:24:43;0.20;;;0.20;;
14241;SDS011;7205;50.864;12.766;2023-10-08T07:27:10;0.30;;;0.30;;
14241;SDS011;7205;50.864;12.766;2023-10-08T07:29:39;0.40;;;0.40;;
14241;SDS011;7205;50.864;12.766;2023-10-08T07:32:07;0.40;;;0.30;;
14241;SDS011;7205;50.864;12.766;2023-10-08T07:34:36;0.83;;;0.30;;
14241;SDS011;7205;50.864;12.766;2023-10-08T07:37:05;0.20;;;0.20;;
14241;SDS011;7205;50.864;12.766;2023-10-08T07:39:32;0.87;;;0.43;;
14241;SDS011;7205;50.864;12.766;2023-10-08T07:42:09;0.50;;;0.50;;
14241;SDS011;7205;50.864;12.766;2023-10-08T07:44:36;0.60;;;0.47;;
14241;SDS011;7205;50.864;12.766;2023-10-08T07:47:04;0.23;;;0.23;;
14241;SDS011;7205;50.864;12.766;2023-10-08T07:49:36;0.67;;;0.43;;
14241;SDS011;7205;50.864;12.766;2023-10-08T07:52:03;1.80;;;0.37;;
14241;SDS011;7205;50.864;12.766;2023-10-08T07:54:33;0.40;;;0.40;;
14241;SDS011;7205;50.864;12.766;2023-10-08T07:57:00;0.50;;;0.50;;
14241;SDS011;7205;50.864;12.766;2023-10-08T07:59:34;0.63;;;0.53;;
14241;SDS011;7205;50.864;12.766;2023-10-08T08:02:03;0.87;;;0.77;;
14241;SDS011;7205;50.864;12.766;2023-10-08T08:04:36;0.73;;;0.73;;
14241;SDS011;7205;50.864;12.766;2023-10-08T08:07:05;2.27;;;0.90;;
14241;SDS011;7205;50.864;12.766;2023-10-08T08:09:32;2.00;;;1.00;;
14241;SDS011;7205;50.864;12.766;2023-10-08T08:12:04;2.17;;;1.07;;
14241;SDS011;7205;50.864;12.766;2023-10-08T08:14:36;0.93;;;0.80;;
14241;SDS011;7205;50.864;12.766;2023-10-08T08:17:04;2.53;;;1.07;;
14241;SDS011;7205;50.864;12.766;2023-10-08T08:19:40;2.87;;;0.97;;
14241;SDS011;7205;50.864;12.766;2023-10-08T08:22:07;1.87;;;1.10;;
14241;SDS011;7205;50.864;12.766;2023-10-08T08:24:34;2.50;;;1.00;;
14241;SDS011;7205;50.864;12.766;2023-10-08T08:27:03;1.87;;;1.10;;
14241;SDS011;7205;50.864;12.766;2023-10-08T08:29:36;3.47;;;1.10;;
14241;SDS011;7205;50.864;12.766;2023-10-08T08:32:10;3.50;;;1.13;;
14241;SDS011;7205;50.864;12.766;2023-10-08T08:34:42;2.07;;;1.20;;
14241;SDS011;7205;50.864;12.766;2023-10-08T08:37:10;2.47;;;0.87;;
14241;SDS011;7205;50.864;12.766;2023-10-08T08:39:38;2.87;;;1.10;;
14241;SDS011;7205;50.864;12.766;2023-10-08T08:42:06;3.60;;;1.30;;
14241;SDS011;7205;50.864;12.766;2023-10-08T08:44:35;2.10;;;1.13;;
14241;SDS011;7205;50.864;12.766;2023-10-08T08:47:04;2.90;;;1.30;;
14241;SDS011;7205;50.864;12.766;2023-10-08T08:49:36;3.43;;;1.20;;
14241;SDS011;7205;50.864;12.766;2023-10-08T08:52:05;3.17;;;0.97;;
14241;SDS011;7205;50.864;12.766;2023-10-08T08:54:32;4.30;;;1.20;;
14241;SDS011;7205;50.864;12.766;2023-10-08T08:56:59;3.07;;;1.40;;
14241;SDS011;7205;50.864;12.766;2023-10-08T08:59:29;2.43;;;1.37;;
14241;SDS011;7205;50.864;12.766;2023-10-08T09:01:57;1.70;;;1.07;;
14241;SDS011;7205;50.864;12.766;2023-10-08T09:04:28;3.00;;;1.00;;
14241;SDS011;7205;50.864;12.766;2023-10-08T09:06:56;2.40;;;1.27;;
14241;SDS011;7205;50.864;12.766;2023-10-08T09:09:32;2.70;;;1.37;;
14241;SDS011;7205;50.864;12.766;2023-10-08T09:11:59;3.57;;;1.17;;
14241;SDS011;7205;50.864;12.766;2023-10-08T09:14:28;1.97;;;0.83;;
14241;SDS011;7205;50.864;12.766;2023-10-08T09:16:57;2.13;;;1.50;;
14241;SDS011;7205;50.864;12.766;2023-10-08T09:19:26;2.20;;;1.10;;
14241;SDS011;7205;50.864;12.766;2023-10-08T09:21:59;1.40;;;1.00;;
14241;SDS011;7205;50.864;12.766;2023-10-08T09:24:29;1.90;;;0.97;;
14241;SDS011;7205;50.864;12.766;2023-10-08T09:27:02;3.07;;;1.80;;
14241;SDS011;7205;50.864;12.766;2023-10-08T09:29:32;8.07;;;3.37;;
14241;SDS011;7205;50.864;12.766;2023-10-08T09:32:05;1.97;;;1.10;;
14241;SDS011;7205;50.864;12.766;2023-10-08T09:34:37;1.83;;;1.20;;
14241;SDS011;7205;50.864;12.766;2023-10-08T09:37:04;3.27;;;1.20;;
14241;SDS011;7205;50.864;12.766;2023-10-08T09:39:33;4.10;;;1.70;;
14241;SDS011;7205;50.864;12.766;2023-10-08T09:42:04;1.70;;;1.60;;
14241;SDS011;7205;50.864;12.766;2023-10-08T09:44:36;2.20;;;1.50;;
14241;SDS011;7205;50.864;12.766;2023-10-08T09:47:05;2.13;;;1.43;;
14241;SDS011;7205;50.864;12.766;2023-10-08T09:49:37;4.67;;;1.50;;
14241;SDS011;7205;50.864;12.766;2023-10-08T09:52:07;2.83;;;1.30;;
14241;SDS011;7205;50.864;12.766;2023-10-08T09:54:42;5.60;;;1.30;;
14241;SDS011;7205;50.864;12.766;2023-10-08T09:57:13;2.40;;;1.70;;
14241;SDS011;7205;50.864;12.766;2023-10-08T09:59:45;1.40;;;1.23;;
14241;SDS011;7205;50.864;12.766;2023-10-08T10:02:18;3.63;;;1.50;;
14241;SDS011;7205;50.864;12.766;2023-10-08T10:04:49;3.00;;;1.53;;
14241;SDS011;7205;50.864;12.766;2023-10-08T10:07:17;1.50;;;1.03;;
14241;SDS011;7205;50.864;12.766;2023-10-08T10:09:46;2.03;;;1.27;;
14241;SDS011;7205;50.864;12.766;2023-10-08T10:12:20;2.90;;;1.50;;
14241;SDS011;7205;50.864;12.766;2023-10-08T10:14:51;1.87;;;1.50;;
14241;SDS011;7205;50.864;12.766;2023-10-08T10:17:24;3.43;;;2.67;;
14241;SDS011;7205;50.864;12.766;2023-10-08T10:19:53;3.03;;;1.30;;
14241;SDS011;7205;50.864;12.766;2023-10-08T10:22:30;2.13;;;1.30;;
14241;SDS011;7205;50.864;12.766;2023-10-08T10:25:06;3.77;;;1.83;;
14241;SDS011;7205;50.864;12.766;2023-10-08T10:30:44;3.47;;;1.50;;
14241;SDS011;7205;50.864;12.766;2023-10-08T10:33:12;3.70;;;1.53;;
14241;SDS011;7205;50.864;12.766;2023-10-08T10:35:39;2.03;;;1.50;;
14241;SDS011;7205;50.864;12.766;2023-10-08T10:38:09;4.40;;;2.13;;
14241;SDS011;7205;50.864;12.766;2023-10-08T10:40:39;5.10;;;2.67;;
14241;SDS011;7205;50.864;12.766;2023-10-08T10:43:08;4.30;;;2.37;;
14241;SDS011;7205;50.864;12.766;2023-10-08T10:45:35;2.73;;;1.93;;
14241;SDS011;7205;50.864;12.766;2023-10-08T10:48:08;3.17;;;1.53;;
14241;SDS011;7205;50.864;12.766;2023-10-08T10:50:46;3.13;;;1.87;;
14241;SDS011;7205;50.864;12.766;2023-10-08T10:53:33;3.00;;;1.80;;
14241;SDS011;7205;50.864;12.766;2023-10-08T10:56:12;2.63;;;1.30;;
14241;SDS011;7205;50.864;12.766;2023-10-08T10:59:00;4.63;;;1.90;;
14241;SDS011;7205;50.864;12.766;2023-10-08T11:03:07;2.63;;;1.20;;
14241;SDS011;7205;50.864;12.766;2023-10-08T11:09:15;2.53;;;1.70;;
14241;SDS011;7205;50.864;12.766;2023-10-08T11:11:48;1.80;;;1.47;;
14241;SDS011;7205;50.864;12.766;2023-10-08T11:14:19;2.90;;;1.77;;
14241;SDS011;7205;50.864;12.766;2023-10-08T11:16:47;3.10;;;1.53;;
14241;SDS011;7205;50.864;12.766;2023-10-08T11:19:15;3.60;;;2.03;;
14241;SDS011;7205;50.864;12.766;2023-10-08T11:21:48;2.77;;;1.50;;
14241;SDS011;7205;50.864;12.766;2023-10-08T11:24:27;2.10;;;1.30;;
14241;SDS011;7205;50.864;12.766;2023-10-08T11:26:55;2.53;;;1.43;;
14241;SDS011;7205;50.864;12.766;2023-10-08T11:29:32;2.70;;;1.87;;
14241;SDS011;7205;50.864;12.766;2023-10-08T11:31:59;2.43;;;1.80;;
14241;SDS011;7205;50.864;12.766;2023-10-08T11:34:31;3.90;;;1.70;;
14241;SDS011;7205;50.864;12.766;2023-10-08T11:37:04;2.70;;;2.00;;
14241;SDS011;7205;50.864;12.766;2023-10-08T11:39:40;3.87;;;2.17;;
14241;SDS011;7205;50.864;12.766;2023-10-08T11:42:10;3.87;;;1.57;;
14241;SDS011;7205;50.864;12.766;2023-10-08T11:45:03;2.73;;;1.87;;
14241;SDS011;7205;50.864;12.766;2023-10-08T11:47:43;3.17;;;1.73;;
14241;SDS011;7205;50.864;12.766;2023-10-08T11:50:10;5.57;;;2.60;;
14241;SDS011;7205;50.864;12.766;2023-10-08T11:52:42;3.47;;;2.20;;
14241;SDS011;7205;50.864;12.766;2023-10-08T11:55:11;2.73;;;1.57;;
14241;SDS011;7205;50.864;12.766;2023-10-08T11:57:44;3.90;;;1.60;;
14241;SDS011;7205;50.864;12.766;2023-10-08T12:00:14;3.40;;;1.77;;
14241;SDS011;7205;50.864;12.766;2023-10-08T12:02:50;4.23;;;1.43;;
14241;SDS011;7205;50.864;12.766;2023-10-08T12:05:19;4.97;;;1.47;;
14241;SDS011;7205;50.864;12.766;2023-10-08T12:07:51;3.30;;;1.40;;
14241;SDS011;7205;50.864;12.766;2023-10-08T12:10:24;2.23;;;1.83;;
14241;SDS011;7205;50.864;12.766;2023-10-08T12:12:51;6.30;;;2.20;;
14241;SDS011;7205;50.864;12.766;2023-10-08T12:15:19;4.23;;;2.10;;
14241;SDS011;7205;50.864;12.766;2023-10-08T12:17:46;4.63;;;2.60;;
14241;SDS011;7205;50.864;12.766;2023-10-08T12:20:36;3.37;;;1.70;;
14241;SDS011;7205;50.864;12.766;2023-10-08T12:23:04;3.80;;;1.70;;
14241;SDS011;7205;50.864;12.766;2023-10-08T12:25:33;3.67;;;2.03;;
14241;SDS011;7205;50.864;12.766;2023-10-08T12:28:00;3.80;;;1.90;;
14241;SDS011;7205;50.864;12.766;2023-10-08T12:30:29;7.03;;;2.43;;
14241;SDS011;7205;50.864;12.766;2023-10-08T12:33:06;2.90;;;1.93;;
14241;SDS011;7205;50.864;12.766;2023-10-08T12:35:38;4.60;;;2.10;;
14241;SDS011;7205;50.864;12.766;2023-10-08T12:38:05;2.23;;;1.60;;
14241;SDS011;7205;50.864;12.766;2023-10-08T12:40:35;4.67;;;1.57;;
14241;SDS011;7205;50.864;12.766;2023-10-08T12:43:18;5.23;;;1.87;;
14241;SDS011;7205;50.864;12.766;2023-10-08T12:45:46;3.30;;;1.67;;
14241;SDS011;7205;50.864;12.766;2023-10-08T12:48:20;2.67;;;1.43;;
14241;SDS011;7205;50.864;12.766;2023-10-08T12:50:48;4.87;;;2.17;;
14241;SDS011;7205;50.864;12.766;2023-10-08T12:53:22;4.10;;;1.80;;
14241;SDS011;7205;50.864;12.766;2023-10-08T12:56:00;2.03;;;1.50;;
14241;SDS011;7205;50.864;12.766;2023-10-08T12:58:31;2.40;;;1.50;;
14241;SDS011;7205;50.864;12.766;2023-10-08T13:01:04;4.20;;;1.50;;
14241;SDS011;7205;50.864;12.766;2023-10-08T13:03:32;2.67;;;1.57;;
14241;SDS011;7205;50.864;12.766;2023-10-08T13:06:06;2.63;;;1.80;;
14241;SDS011;7205;50.864;12.766;2023-10-08T13:08:36;2.10;;;1.40;;
14241;SDS011;7205;50.864;12.766;2023-10-08T13:11:10;3.97;;;1.70;;
14241;SDS011;7205;50.864;12.766;2023-10-08T13:13:37;4.23;;;1.50;;
14241;SDS011;7205;50.864;12.766;2023-10-08T13:16:04;2.93;;;1.53;;
14241;SDS011;7205;50.864;12.766;2023-10-08T13:18:33;2.10;;;1.67;;
14241;SDS011;7205;50.864;12.766;2023-10-08T13:21:02;9.67;;;1.77;;
14241;SDS011;7205;50.864;12.766;2023-10-08T13:23:30;5.53;;;1.70;;
14241;SDS011;7205;50.864;12.766;2023-10-08T13:26:00;2.50;;;2.17;;
14241;SDS011;7205;50.864;12.766;2023-10-08T13:28:31;5.93;;;2.20;;
14241;SDS011;7205;50.864;12.766;2023-10-08T13:30:59;3.57;;;1.70;;
14241;SDS011;7205;50.864;12.766;2023-10-08T13:33:28;5.17;;;1.70;;
14241;SDS011;7205;50.864;12.766;2023-10-08T13:35:55;3.40;;;1.70;;
14241;SDS011;7205;50.864;12.766;2023-10-08T13:38:21;11.27;;;2.70;;
14241;SDS011;7205;50.864;12.766;2023-10-08T13:40:48;2.07;;;1.33;;
14241;SDS011;7205;50.864;12.766;2023-10-08T13:43:28;3.20;;;1.83;;
14241;SDS011;7205;50.864;12.766;2023-10-08T13:46:02;3.10;;;1.87;;
14241;SDS011;7205;50.864;12.766;2023-10-08T13:48:31;2.83;;;1.67;;
14241;SDS011;7205;50.864;12.766;2023-10-08T13:51:00;1.60;;;1.30;;
14241;SDS011;7205;50.864;12.766;2023-10-08T13:53:29;3.50;;;1.30;;
14241;SDS011;7205;50.864;12.766;2023-10-08T13:56:00;3.17;;;1.70;;
14241;SDS011;7205;50.864;12.766;2023-10-08T13:58:28;1.63;;;1.27;;
14241;SDS011;7205;50.864;12.766;2023-10-08T14:00:57;3.80;;;1.53;;
14241;SDS011;7205;50.864;12.766;2023-10-08T14:03:26;4.47;;;1.80;;
14241;SDS011;7205;50.864;12.766;2023-10-08T14:05:56;5.00;;;1.87;;
14241;SDS011;7205;50.864;12.766;2023-10-08T14:08:27;3.33;;;1.50;;
14241;SDS011;7205;50.864;12.766;2023-10-08T14:10:56;3.90;;;1.70;;
14241;SDS011;7205;50.864;12.766;2023-10-08T14:13:33;5.00;;;1.60;;
14241;SDS011;7205;50.864;12.766;2023-10-08T14:16:05;3.83;;;1.70;;
14241;SDS011;7205;50.864;12.766;2023-10-08T14:18:54;3.33;;;1.50;;
14241;SDS011;7205;50.864;12.766;2023-10-08T14:21:25;3.20;;;1.33;;
14241;SDS011;7205;50.864;12.766;2023-10-08T14:23:56;2.93;;;1.83;;
14241;SDS011;7205;50.864;12.766;2023-10-08T14:26:28;4.23;;;1.40;;
14241;SDS011;7205;50.864;12.766;2023-10-08T14:29:01;4.27;;;1.70;;
14241;SDS011;7205;50.864;12.766;2023-10-08T14:31:34;5.80;;;2.17;;
14241;SDS011;7205;50.864;12.766;2023-10-08T14:34:04;4.97;;;1.50;;
14241;SDS011;7205;50.864;12.766;2023-10-08T14:36:55;4.77;;;1.70;;
14241;SDS011;7205;50.864;12.766;2023-10-08T14:39:39;3.37;;;1.60;;
14241;SDS011;7205;50.864;12.766;2023-10-08T14:42:23;2.67;;;1.50;;
14241;SDS011;7205;50.864;12.766;2023-10-08T14:45:08;5.00;;;1.67;;
14241;SDS011;7205;50.864;12.766;2023-10-08T14:47:40;2.23;;;1.27;;
14241;SDS011;7205;50.864;12.766;2023-10-08T14:50:07;2.03;;;1.30;;
14241;SDS011;7205;50.864;12.766;2023-10-08T14:52:41;3.87;;;1.87;;
14241;SDS011;7205;50.864;12.766;2023-10-08T14:55:08;4.80;;;2.27;;
14241;SDS011;7205;50.864;12.766;2023-10-08T14:57:36;4.90;;;2.30;;
14241;SDS011;7205;50.864;12.766;2023-10-08T15:00:04;4.03;;;2.63;;
14241;SDS011;7205;50.864;12.766;2023-10-08T15:02:32;3.37;;;1.37;;
14241;SDS011;7205;50.864;12.766;2023-10-08T15:05:00;2.03;;;1.70;;
14241;SDS011;7205;50.864;12.766;2023-10-08T15:07:27;4.10;;;1.60;;
14241;SDS011;7205;50.864;12.766;2023-10-08T15:10:09;3.57;;;1.77;;
14241;SDS011;7205;50.864;12.766;2023-10-08T15:12:38;5.63;;;3.70;;
14241;SDS011;7205;50.864;12.766;2023-10-08T15:15:10;4.67;;;2.10;;
14241;SDS011;7205;50.864;12.766;2023-10-08T15:17:39;5.30;;;1.60;;
14241;SDS011;7205;50.864;12.766;2023-10-08T15:20:08;2.77;;;1.73;;
14241;SDS011;7205;50.864;12.766;2023-10-08T15:22:40;4.60;;;1.50;;
14241;SDS011;7205;50.864;12.766;2023-10-08T15:25:17;1.30;;;1.10;;